Main page
METAR-TAF:

METAR-TAF

Airports :

Bologna, Italy

Bologna Guglielmo Marconi Airport

latitude: 44-32N, longitude: 011-18E, elevation: 36 m

Current weather observation

The report was made 31 minutes ago, at 09:20 UTC
Wind 3 kt from the North, varying between West and Northeast
Temperature 6°C
Humidity 65%
Pressure 1022 hPa
Visibility 10 km or more
no clouds below 1500 m and no cumulonimbus

METAR: LIPE 230920Z 35003KT 280V050 CAVOK 06/00 Q1022

Time: 10:51 (09:51 UTC)

Forecast

The report was made 4 hours and 51 minutes ago, at 05:00 UTC
Forecast valid from 23 at 06 UTC to 24 at 06 UTC
Wind 5 kt from variable directions
Visibility 10 km or more
Few clouds at a height of 4000 ft

TAF: LIPE 230500Z 2306/2406 VRB05KT 9999 FEW040

Weather observations and forecasts of more than 4000 airports (METAR and TAF reports).

The available stations are represented by yellow and red dots on the map.

Hover mouse over dot to see the name of the station.

Then click to see weather observations and forecasts.

To change the map : click on the green buttons with a black cross to zoom in, on the green button with a dash to zoom out, or on the green arrows for adjacent maps.


METAR-TAF: